Time;durP1;ratioP1;P1;durP2;ratioP2;P2;SDS_P1;SDS_P2;PMS_P1;PMS_P2;Temp;Humidity;BMP_temperature;BMP_pressure;BME280_temperature;BME280_humidity;BME280_pressure;Samples;Min_cycle;Max_cycle;Signal;HPM_P1;HPM_P2
2021/10/02 00:31:30;;;;;;;6.07;4.63;;;12.10;99.90;;;;;;5032755;28;20205;-64
2021/10/02 00:37:08;;;;;;;5.57;4.20;;;12.10;99.90;;;;;;5032256;28;20201;-64
2021/10/02 00:45:05;;;;;;;5.23;4.40;;;12.10;99.90;;;;;;5032254;28;20214;-64
2021/10/02 00:47:35;;;;;;;6.07;4.77;;;12.10;99.90;;;;;;5032451;28;20206;-64
2021/10/02 00:50:04;;;;;;;5.60;4.13;;;12.10;99.90;;;;;;5032180;28;20237;-64
2021/10/02 00:52:32;;;;;;;8.07;4.97;;;12.10;99.90;;;;;;5032284;28;20207;-64
2021/10/02 00:54:59;;;;;;;5.23;4.60;;;12.00;99.90;;;;;;5032100;28;20277;-64
2021/10/02 00:57:26;;;;;;;5.47;4.93;;;12.10;99.90;;;;;;5032050;28;20210;-64
2021/10/02 00:59:54;;;;;;;6.13;5.10;;;12.10;99.90;;;;;;5032163;28;20237;-64
2021/10/02 01:02:25;;;;;;;8.13;5.57;;;12.10;99.90;;;;;;5032275;28;20214;-64
2021/10/02 01:05:15;;;;;;;5.47;4.90;;;12.10;99.90;;;;;;5031787;28;20214;-64
2021/10/02 01:07:53;;;;;;;6.30;5.17;;;12.10;99.90;;;;;;5031863;28;20735;-64
2021/10/02 01:10:27;;;;;;;8.90;5.07;;;12.20;99.90;;;;;;5032191;28;20206;-64
2021/10/02 01:13:02;;;;;;;7.40;5.57;;;12.20;99.90;;;;;;5032143;28;20214;-64
2021/10/02 01:15:36;;;;;;;8.30;6.47;;;12.10;99.90;;;;;;5031672;28;20206;-64
2021/10/02 01:18:11;;;;;;;7.93;5.80;;;12.10;99.90;;;;;;5031875;28;20580;-64
2021/10/02 01:20:47;;;;;;;6.57;5.90;;;12.20;99.90;;;;;;5032109;28;20217;-64
2021/10/02 01:23:33;;;;;;;8.53;5.40;;;12.20;99.90;;;;;;5032051;28;20206;-64
2021/10/02 01:26:20;;;;;;;10.20;5.73;;;12.20;99.90;;;;;;5031369;28;20210;-64
2021/10/02 01:28:54;;;;;;;7.77;6.20;;;12.20;99.90;;;;;;5031890;28;20315;-64
2021/10/02 01:31:25;;;;;;;7.83;6.27;;;12.20;99.90;;;;;;5031896;28;20561;-64
2021/10/02 01:33:58;;;;;;;8.33;6.67;;;12.20;99.90;;;;;;5031907;28;20210;-64
2021/10/02 01:36:43;;;;;;;7.20;6.47;;;12.20;99.90;;;;;;5031394;28;20212;-64
2021/10/02 01:47:30;;;;;;;8.30;7.03;;;12.20;99.90;;;;;;5031880;28;20204;-64
2021/10/02 01:49:59;;;;;;;8.03;6.83;;;12.20;99.90;;;;;;5031463;28;20687;-63
2021/10/02 01:52:32;;;;;;;9.03;6.90;;;12.20;99.90;;;;;;5035132;28;20674;-63
2021/10/02 01:55:01;;;;;;;9.40;7.27;;;12.30;99.90;;;;;;5035546;28;20253;-63
2021/10/02 01:57:34;;;;;;;7.10;6.50;;;12.30;99.90;;;;;;5035533;28;20603;-64
2021/10/02 02:00:07;;;;;;;7.00;6.20;;;12.30;99.90;;;;;;5035409;28;20230;-64
2021/10/02 02:02:36;;;;;;;8.13;6.43;;;12.30;99.90;;;;;;5035734;28;20272;-64
2021/10/02 02:05:05;;;;;;;8.27;6.67;;;12.30;99.90;;;;;;5035527;28;20268;-64
2021/10/02 02:07:33;;;;;;;10.07;6.37;;;12.30;99.90;;;;;;5035390;28;20266;-64
2021/10/02 02:10:01;;;;;;;7.13;6.43;;;12.30;99.90;;;;;;5035404;28;20250;-64
2021/10/02 02:12:32;;;;;;;6.77;6.10;;;12.30;99.90;;;;;;5035160;28;20218;-64
2021/10/02 02:15:00;;;;;;;7.87;7.07;;;12.30;99.90;;;;;;5034995;28;20298;-64
2021/10/02 02:17:29;;;;;;;7.43;6.73;;;12.30;99.90;;;;;;5035144;28;20206;-64
2021/10/02 02:19:58;;;;;;;7.93;7.13;;;12.30;99.90;;;;;;5034874;28;20228;-64
2021/10/02 02:22:25;;;;;;;7.77;6.50;;;12.30;99.90;;;;;;5035083;28;20211;-64
2021/10/02 02:24:51;;;;;;;8.07;7.27;;;12.30;99.90;;;;;;5034566;28;20210;-64
2021/10/02 02:27:18;;;;;;;8.30;6.80;;;12.30;99.90;;;;;;5035255;28;20577;-64
2021/10/02 02:29:45;;;;;;;9.60;8.27;;;12.30;99.90;;;;;;5035355;28;20285;-64
2021/10/02 02:32:12;;;;;;;7.80;7.10;;;12.30;99.90;;;;;;5035034;28;20216;-64
2021/10/02 02:34:41;;;;;;;8.50;7.63;;;12.30;99.90;;;;;;5034595;28;20265;-64
2021/10/02 02:37:07;;;;;;;10.20;7.47;;;12.30;99.90;;;;;;5034523;28;20264;-63
2021/10/02 02:39:34;;;;;;;10.80;8.10;;;12.30;99.90;;;;;;5034795;28;20235;-63
2021/10/02 02:42:01;;;;;;;9.10;8.13;;;12.30;99.90;;;;;;5034636;28;20849;-64
2021/10/02 02:44:28;;;;;;;9.57;8.33;;;12.30;99.90;;;;;;5034778;28;20353;-64
2021/10/02 02:47:01;;;;;;;9.97;8.80;;;12.40;99.90;;;;;;5034502;28;20212;-64
2021/10/02 02:49:35;;;;;;;9.60;8.00;;;12.40;99.90;;;;;;5034482;28;20719;-64
2021/10/02 02:52:08;;;;;;;9.37;8.53;;;12.40;99.90;;;;;;5034368;28;20741;-64
2021/10/02 02:54:40;;;;;;;10.37;9.37;;;12.40;99.90;;;;;;5034252;28;20206;-63
2021/10/02 02:57:12;;;;;;;10.57;9.53;;;12.40;99.90;;;;;;5034629;28;20215;-64
2021/10/02 02:59:44;;;;;;;11.33;10.23;;;12.40;99.90;;;;;;5034455;28;20259;-64
2021/10/02 03:02:17;;;;;;;11.00;9.90;;;12.40;99.90;;;;;;5033387;28;20259;-64
2021/10/02 03:04:46;;;;;;;11.10;9.90;;;12.50;99.90;;;;;;5034089;28;20211;-64
2021/10/02 03:07:18;;;;;;;10.17;9.10;;;12.50;99.90;;;;;;5034447;28;20259;-64
2021/10/02 03:09:48;;;;;;;11.83;10.63;;;12.50;99.90;;;;;;5034052;28;20226;-64
2021/10/02 03:12:16;;;;;;;11.90;10.67;;;12.50;99.90;;;;;;5034349;28;20271;-64
2021/10/02 03:14:44;;;;;;;11.60;10.33;;;12.50;99.90;;;;;;5033713;28;20217;-64
2021/10/02 03:17:12;;;;;;;11.63;10.37;;;12.40;99.90;;;;;;5033706;28;20212;-64
2021/10/02 03:19:40;;;;;;;14.17;10.70;;;12.40;99.90;;;;;;5034090;28;20231;-64
2021/10/02 03:22:08;;;;;;;12.97;11.53;;;12.40;99.90;;;;;;5033983;28;20212;-64
2021/10/02 03:24:38;;;;;;;12.37;11.10;;;12.50;99.90;;;;;;5033724;28;20284;-64
2021/10/02 03:27:06;;;;;;;12.07;10.73;;;12.40;99.90;;;;;;5033925;28;20209;-64
2021/10/02 03:29:35;;;;;;;12.50;11.17;;;12.40;99.90;;;;;;5033512;28;20741;-64
2021/10/02 03:32:02;;;;;;;12.60;11.20;;;12.50;99.90;;;;;;5033774;28;20580;-64
2021/10/02 03:34:29;;;;;;;13.83;10.47;;;12.50;99.90;;;;;;5033772;28;20603;-64
2021/10/02 03:36:56;;;;;;;12.00;9.97;;;12.50;99.90;;;;;;5033761;28;20246;-64
2021/10/02 03:39:23;;;;;;;13.80;11.03;;;12.50;99.90;;;;;;5033579;28;20229;-64
2021/10/02 03:42:10;;;;;;;11.90;10.67;;;12.50;99.90;;;;;;5033691;28;20206;-64
2021/10/02 03:44:39;;;;;;;12.83;10.73;;;12.50;99.90;;;;;;5033316;28;20301;-64
2021/10/02 03:47:05;;;;;;;14.60;10.90;;;12.50;99.90;;;;;;5033547;28;20220;-64
2021/10/02 03:49:32;;;;;;;11.80;10.30;;;12.50;99.90;;;;;;5033228;28;20291;-64
2021/10/02 03:51:59;;;;;;;11.57;10.40;;;12.50;99.90;;;;;;5033320;28;20224;-64
2021/10/02 03:54:25;;;;;;;11.20;9.67;;;12.50;99.90;;;;;;5033126;28;20633;-64
2021/10/02 03:56:52;;;;;;;11.80;10.60;;;12.50;99.90;;;;;;5032996;28;20677;-64
2021/10/02 03:59:20;;;;;;;11.93;10.20;;;12.50;99.90;;;;;;5033269;28;20230;-64
2021/10/02 04:01:47;;;;;;;12.53;10.30;;;12.50;99.90;;;;;;5033422;28;20617;-64
2021/10/02 04:04:14;;;;;;;11.90;10.70;;;12.50;99.90;;;;;;5033495;28;20212;-64
2021/10/02 04:06:40;;;;;;;15.97;10.43;;;12.50;99.90;;;;;;5032744;28;20208;-64
2021/10/02 04:09:07;;;;;;;11.93;9.67;;;12.50;99.90;;;;;;5033009;28;20276;-64
2021/10/02 04:11:34;;;;;;;11.00;9.90;;;12.50;99.90;;;;;;5033378;28;20677;-64
2021/10/02 04:14:03;;;;;;;11.87;9.80;;;12.50;99.90;;;;;;5032950;28;20266;-64
2021/10/02 04:16:31;;;;;;;11.37;10.17;;;12.50;99.90;;;;;;5032531;28;20204;-64
2021/10/02 04:18:58;;;;;;;11.10;9.50;;;12.50;99.90;;;;;;5032815;28;20362;-64
2021/10/02 04:21:25;;;;;;;14.03;10.30;;;12.50;99.90;;;;;;5032631;28;20219;-64
2021/10/02 04:23:52;;;;;;;12.17;10.87;;;12.50;99.90;;;;;;5032604;28;20214;-64
2021/10/02 04:26:21;;;;;;;13.00;10.40;;;12.50;99.90;;;;;;5032596;28;20204;-64
2021/10/02 04:28:48;;;;;;;11.00;9.87;;;12.60;99.90;;;;;;5032577;28;20242;-64
2021/10/02 04:31:16;;;;;;;11.43;10.27;;;12.60;99.90;;;;;;5032676;28;20209;-64
2021/10/02 04:33:44;;;;;;;13.17;10.20;;;12.60;99.90;;;;;;5032568;28;20264;-64
2021/10/02 04:36:11;;;;;;;14.13;11.37;;;12.60;99.90;;;;;;5032076;28;20241;-64
2021/10/02 04:38:38;;;;;;;10.93;9.80;;;12.70;99.90;;;;;;5032251;28;20293;-64
2021/10/02 04:41:05;;;;;;;13.17;10.47;;;12.60;99.90;;;;;;5032679;28;20271;-64
2021/10/02 04:43:34;;;;;;;11.90;9.63;;;12.60;99.90;;;;;;5032519;28;20259;-64
2021/10/02 04:46:02;;;;;;;11.63;9.27;;;12.70;99.90;;;;;;5032006;28;20217;-64
2021/10/02 04:48:29;;;;;;;11.67;10.47;;;12.60;99.90;;;;;;5032163;28;20681;-64
2021/10/02 04:50:57;;;;;;;11.70;9.40;;;12.70;99.90;;;;;;5032210;28;20215;-64
2021/10/02 04:53:23;;;;;;;11.23;10.07;;;12.60;99.90;;;;;;5032451;28;20208;-64
2021/10/02 04:55:54;;;;;;;13.20;10.10;;;12.60;99.90;;;;;;5031929;28;20562;-66
2021/10/02 04:58:20;;;;;;;11.40;10.07;;;12.60;99.90;;;;;;5032546;28;20232;-63
2021/10/02 05:00:47;;;;;;;11.63;10.07;;;12.60;99.90;;;;;;5032009;28;20229;-63
2021/10/02 05:03:14;;;;;;;12.17;9.70;;;12.60;99.90;;;;;;5032107;28;20297;-65
2021/10/02 05:05:40;;;;;;;11.37;9.93;;;12.60;99.90;;;;;;5031929;28;20213;-65
2021/10/02 05:08:09;;;;;;;13.63;10.77;;;12.50;99.90;;;;;;5032161;28;20287;-65
2021/10/02 05:10:35;;;;;;;14.20;10.67;;;12.50;99.90;;;;;;5032237;28;20256;-65
2021/10/02 05:13:02;;;;;;;12.93;9.97;;;12.50;99.90;;;;;;5032136;28;20612;-62
2021/10/02 05:15:29;;;;;;;10.47;9.33;;;12.50;99.90;;;;;;5031675;28;20269;-63
2021/10/02 05:17:55;;;;;;;10.10;9.10;;;12.50;99.90;;;;;;5031726;28;20214;-63
2021/10/02 05:20:22;;;;;;;10.80;8.63;;;12.60;99.90;;;;;;5031977;28;20939;-63
2021/10/02 05:22:48;;;;;;;11.13;8.70;;;12.50;99.90;;;;;;5032044;28;20215;-63
2021/10/02 05:25:16;;;;;;;12.70;8.40;;;12.60;99.90;;;;;;5030988;28;20209;-63
2021/10/02 05:27:43;;;;;;;8.93;7.40;;;12.50;99.90;;;;;;5032008;28;20268;-63
2021/10/02 05:30:10;;;;;;;9.50;7.43;;;12.60;99.90;;;;;;5031635;28;20241;-63
2021/10/02 05:32:37;;;;;;;9.30;7.20;;;12.50;99.90;;;;;;5031745;28;20212;-63
2021/10/02 05:35:04;;;;;;;8.23;7.37;;;12.50;99.90;;;;;;5031297;28;20210;-63
2021/10/02 05:37:31;;;;;;;10.47;7.73;;;12.50;99.90;;;;;;5031900;28;20206;-63
2021/10/02 05:39:58;;;;;;;10.53;8.17;;;12.50;99.90;;;;;;5031619;28;20237;-63
2021/10/02 05:42:25;;;;;;;11.43;8.17;;;12.50;99.90;;;;;;5031682;28;20262;-63
2021/10/02 05:44:52;;;;;;;9.20;8.17;;;12.50;99.90;;;;;;5031133;28;20216;-63
2021/10/02 05:47:19;;;;;;;10.13;8.47;;;12.50;99.90;;;;;;5031848;28;20237;-63
2021/10/02 05:49:45;;;;;;;8.97;7.97;;;12.50;99.90;;;;;;5031641;28;20654;-63
2021/10/02 05:52:13;;;;;;;8.43;7.53;;;12.50;99.90;;;;;;5031646;28;20257;-65
2021/10/02 05:54:39;;;;;;;9.77;7.87;;;12.50;99.90;;;;;;5031345;28;20303;-64
2021/10/02 05:57:06;;;;;;;10.03;8.03;;;12.50;99.90;;;;;;5031556;28;20210;-63
2021/10/02 05:59:34;;;;;;;10.43;8.23;;;12.50;99.90;;;;;;5031284;28;20674;-64
2021/10/02 06:02:02;;;;;;;9.97;7.83;;;12.50;99.90;;;;;;5031420;28;20254;-63
2021/10/02 06:04:29;;;;;;;9.73;7.63;;;12.50;99.90;;;;;;5031673;28;20206;-64
2021/10/02 06:06:55;;;;;;;8.50;7.70;;;12.50;99.90;;;;;;5031512;28;20210;-63
2021/10/02 06:09:22;;;;;;;9.70;8.17;;;12.50;99.90;;;;;;5031377;28;20229;-64
2021/10/02 06:11:49;;;;;;;9.70;8.27;;;12.50;99.90;;;;;;5031413;28;20232;-63
2021/10/02 06:14:15;;;;;;;10.20;8.30;;;12.50;99.90;;;;;;5031459;28;20264;-63
2021/10/02 06:16:43;;;;;;;9.53;8.63;;;12.40;99.90;;;;;;5031236;28;20206;-63
2021/10/02 06:19:10;;;;;;;10.83;9.47;;;12.40;99.90;;;;;;5031278;28;20224;-63
2021/10/02 06:21:37;;;;;;;9.70;8.70;;;12.40;99.90;;;;;;5031410;28;20234;-63
2021/10/02 06:24:04;;;;;;;10.37;9.30;;;12.40;99.90;;;;;;5031218;28;20741;-64
2021/10/02 06:26:33;;;;;;;9.63;8.67;;;12.40;99.90;;;;;;5031073;28;20215;-63
2021/10/02 06:29:00;;;;;;;11.27;8.77;;;12.40;99.90;;;;;;5031487;28;20233;-63
2021/10/02 06:31:26;;;;;;;9.30;7.77;;;12.40;99.90;;;;;;5031849;28;20202;-63
2021/10/02 06:33:54;;;;;;;9.73;8.30;;;12.40;99.90;;;;;;5032170;28;20628;-63
2021/10/02 06:36:21;;;;;;;9.13;8.17;;;12.40;99.90;;;;;;5031171;28;20628;-63
2021/10/02 06:38:48;;;;;;;10.80;7.20;;;12.50;99.90;;;;;;5033614;28;20233;-63
2021/10/02 06:41:14;;;;;;;7.70;7.00;;;12.50;99.90;;;;;;5034410;28;20646;-64
2021/10/02 06:43:41;;;;;;;7.97;6.90;;;12.50;99.90;;;;;;5034888;28;20204;-64
2021/10/02 06:46:08;;;;;;;9.13;6.77;;;12.50;99.90;;;;;;5034580;28;20609;-63
2021/10/02 06:48:34;;;;;;;6.77;6.17;;;12.50;99.90;;;;;;5034410;28;20720;-63
2021/10/02 06:51:02;;;;;;;8.10;6.47;;;12.50;99.90;;;;;;5034558;28;20245;-64
2021/10/02 06:53:29;;;;;;;6.57;5.97;;;12.50;99.90;;;;;;5034338;28;20392;-64
2021/10/02 06:55:56;;;;;;;6.90;6.20;;;12.60;99.90;;;;;;5030811;28;20214;-63
2021/10/02 06:58:22;;;;;;;7.47;6.77;;;12.50;99.90;;;;;;5034260;28;20702;-64
2021/10/02 07:00:49;;;;;;;7.70;6.50;;;12.60;99.90;;;;;;5034314;28;20244;-64
2021/10/02 07:03:16;;;;;;;6.93;6.33;;;12.60;99.90;;;;;;5034142;28;20256;-63
2021/10/02 07:05:42;;;;;;;6.47;5.87;;;12.60;99.90;;;;;;5033867;28;20216;-64
2021/10/02 07:08:10;;;;;;;7.10;6.43;;;12.70;99.90;;;;;;5033770;28;20710;-63
2021/10/02 07:10:37;;;;;;;6.90;6.20;;;12.70;99.90;;;;;;5034263;28;20205;-63
2021/10/02 07:13:04;;;;;;;6.77;6.13;;;12.80;99.90;;;;;;5034128;28;20266;-63
2021/10/02 07:15:30;;;;;;;6.03;5.43;;;12.80;99.90;;;;;;5033653;28;20220;-64
2021/10/02 07:17:57;;;;;;;5.77;5.27;;;12.80;99.90;;;;;;5034180;28;20587;-63
2021/10/02 07:20:25;;;;;;;5.00;4.60;;;12.80;99.90;;;;;;5033778;28;20289;-63
2021/10/02 07:22:52;;;;;;;6.23;4.20;;;12.90;99.90;;;;;;5033696;28;20210;-65
2021/10/02 07:25:22;;;;;;;4.30;3.90;;;12.90;99.90;;;;;;5033516;28;20208;-65
2021/10/02 07:27:49;;;;;;;5.13;4.00;;;12.90;99.90;;;;;;5033672;28;20213;-64
2021/10/02 07:30:17;;;;;;;4.00;3.60;;;13.00;99.90;;;;;;5033572;28;20199;-65
2021/10/02 07:32:43;;;;;;;3.70;3.30;;;13.00;99.90;;;;;;5032747;28;20266;-65
2021/10/02 07:35:11;;;;;;;3.83;3.50;;;13.00;99.90;;;;;;5032653;28;20217;-64
2021/10/02 07:37:38;;;;;;;3.97;2.87;;;13.10;99.90;;;;;;5033424;28;20735;-64
2021/10/02 07:40:07;;;;;;;3.30;3.00;;;13.20;94.60;;;;;;5033818;28;20251;-65
2021/10/02 07:42:37;;;;;;;3.20;2.70;;;13.20;86.10;;;;;;5033360;28;20217;-64
2021/10/02 07:45:07;;;;;;;2.90;2.60;;;13.30;85.60;;;;;;5033142;28;20213;-64
2021/10/02 07:47:39;;;;;;;3.33;2.43;;;13.30;59.40;;;;;;5027755;28;20255;-64
2021/10/02 07:50:09;;;;;;;4.20;2.33;;;13.30;1.00;;;;;;5032445;28;20206;-65
2021/10/02 07:52:35;;;;;;;2.80;2.20;;;13.30;1.00;;;;;;5032557;28;20588;-63
2021/10/02 07:55:04;;;;;;;2.43;2.23;;;13.30;1.00;;;;;;5032307;28;20213;-62
2021/10/02 07:57:32;;;;;;;2.57;2.17;;;13.30;1.00;;;;;;5032440;28;20225;-63
2021/10/02 08:00:00;;;;;;;3.17;2.60;;;13.30;1.00;;;;;;5032727;28;20233;-63
2021/10/02 08:02:29;;;;;;;2.50;2.30;;;13.30;1.00;;;;;;5032727;28;20209;-63
2021/10/02 08:04:56;;;;;;;2.57;2.30;;;13.30;1.00;;;;;;5032496;28;20213;-62
2021/10/02 08:07:23;;;;;;;2.10;1.90;;;13.30;1.00;;;;;;5032577;28;20206;-66
2021/10/02 08:09:53;;;;;;;3.20;2.40;;;13.30;1.00;;;;;;5032688;28;20229;-66
2021/10/02 08:12:19;;;;;;;3.90;2.20;;;13.30;1.00;;;;;;5032828;28;20213;-66
2021/10/02 08:14:46;;;;;;;6.63;2.60;;;13.40;1.00;;;;;;5032090;28;20213;-69
2021/10/02 08:17:15;;;;;;;3.97;2.10;;;13.40;1.00;;;;;;5032713;28;20214;-72
2021/10/02 08:19:42;;;;;;;3.70;2.43;;;13.50;1.00;;;;;;5032663;28;20237;-71
2021/10/02 08:22:10;;;;;;;3.77;2.30;;;13.60;1.00;;;;;;5032379;28;20249;-68
2021/10/02 08:24:39;;;;;;;3.40;1.97;;;13.70;1.00;;;;;;5032295;28;20221;-68
2021/10/02 08:27:06;;;;;;;3.37;1.80;;;13.80;1.00;;;;;;5032162;28;20210;-69
2021/10/02 08:29:33;;;;;;;1.87;1.70;;;13.80;1.00;;;;;;5032033;28;20236;-65
2021/10/02 08:32:00;;;;;;;2.07;1.67;;;14.00;1.00;;;;;;5032540;28;20206;-65
2021/10/02 08:34:28;;;;;;;2.23;1.70;;;14.00;1.00;;;;;;5032024;28;20608;-64
2021/10/02 08:36:54;;;;;;;1.93;1.73;;;14.10;99.90;;;;;;5031522;28;20237;-65
2021/10/02 08:39:21;;;;;;;2.70;1.67;;;14.10;99.90;;;;;;5031989;28;20660;-64
2021/10/02 08:41:50;;;;;;;2.80;1.40;;;14.20;99.90;;;;;;5032015;28;20222;-66
2021/10/02 08:44:18;;;;;;;2.70;1.80;;;14.20;99.90;;;;;;5032257;28;20668;-65
2021/10/02 08:46:46;;;;;;;2.87;1.57;;;14.30;19.10;;;;;;5031507;28;20252;-67
2021/10/02 08:49:27;;;;;;;1.87;1.53;;;14.30;1.00;;;;;;5031846;28;20332;-65
2021/10/02 08:51:56;;;;;;;2.00;1.80;;;14.30;1.00;;;;;;5031835;28;20207;-66
2021/10/02 08:54:24;;;;;;;1.57;1.47;;;14.40;1.00;;;;;;5031663;28;20277;-66
2021/10/02 08:56:52;;;;;;;2.73;1.47;;;14.40;1.00;;;;;;5031266;28;20610;-65
2021/10/02 08:59:20;;;;;;;2.63;1.63;;;14.50;99.90;;;;;;5031805;28;20230;-65
2021/10/02 09:01:48;;;;;;;2.43;1.83;;;14.60;99.90;;;;;;5030947;28;20646;-65
2021/10/02 09:04:15;;;;;;;1.50;1.40;;;14.70;99.90;;;;;;5031910;28;20213;-65
2021/10/02 09:06:42;;;;;;;2.80;1.50;;;14.90;1.00;;;;;;5031242;28;20218;-67
2021/10/02 09:09:10;;;;;;;1.67;1.50;;;15.00;99.90;;;;;;5031372;28;20226;-63
2021/10/02 09:11:37;;;;;;;1.50;1.40;;;14.90;99.90;;;;;;5031855;28;20298;-64
2021/10/02 09:14:04;;;;;;;3.40;1.60;;;14.90;99.90;;;;;;5031604;28;20215;-64
2021/10/02 09:16:31;;;;;;;3.07;1.77;;;14.80;99.90;;;;;;5029871;28;20301;-64
2021/10/02 09:18:58;;;;;;;2.07;1.70;;;14.80;99.90;;;;;;5031338;28;20222;-62
2021/10/02 09:21:25;;;;;;;3.17;1.80;;;14.90;99.90;;;;;;5030782;28;20288;-63
2021/10/02 09:23:52;;;;;;;2.10;1.90;;;14.90;1.00;;;;;;5030820;28;20205;-65
2021/10/02 09:26:41;;;;;;;2.10;1.90;;;14.80;1.00;;;;;;5029950;28;20249;-66
2021/10/02 09:29:08;;;;;;;2.37;1.70;;;14.80;1.00;;;;;;5031545;28;20257;-68
2021/10/02 09:31:35;;;;;;;2.13;1.80;;;14.80;1.00;;;;;;5030796;28;20198;-67
2021/10/02 09:34:01;;;;;;;3.47;1.83;;;14.80;1.00;;;;;;5031356;28;20206;-66
2021/10/02 09:36:28;;;;;;;2.27;1.90;;;14.90;1.00;;;;;;5030743;28;20206;-66
2021/10/02 09:38:56;;;;;;;1.60;1.50;;;14.90;99.90;;;;;;5031324;28;20276;-65
2021/10/02 09:41:24;;;;;;;2.00;1.80;;;14.90;1.00;;;;;;5031388;28;20295;-65
2021/10/02 09:43:55;;;;;;;2.27;1.80;;;14.90;99.90;;;;;;5031122;28;20218;-70
2021/10/02 09:46:33;;;;;;;2.23;2.03;;;14.90;1.00;;;;;;5030781;28;20738;-66
2021/10/02 09:48:59;;;;;;;2.73;2.20;;;14.90;99.90;;;;;;5031673;28;20257;-67
2021/10/02 09:51:39;;;;;;;2.30;2.10;;;14.90;99.90;;;;;;5031711;28;20289;-68
2021/10/02 09:54:06;;;;;;;2.30;2.10;;;14.80;99.90;;;;;;5032139;28;20234;-68
2021/10/02 09:56:34;;;;;;;2.33;2.13;;;14.80;99.90;;;;;;5031819;28;20264;-67
2021/10/02 09:59:00;;;;;;;2.10;1.90;;;14.90;99.90;;;;;;5031268;28;20230;-67
2021/10/02 10:01:28;;;;;;;2.73;2.00;;;15.00;1.00;;;;;;5031665;28;20230;-66
2021/10/02 10:03:55;;;;;;;3.83;1.80;;;15.20;1.00;;;;;;5031724;28;20206;-67
2021/10/02 10:06:23;;;;;;;2.37;1.83;;;15.20;1.00;;;;;;5030724;28;20590;-67
2021/10/02 10:09:06;;;;;;;2.70;2.10;;;15.10;1.00;;;;;;5031245;28;20230;-67
2021/10/02 10:11:46;;;;;;;2.00;1.90;;;15.10;1.00;;;;;;5030031;28;20214;-66
2021/10/02 10:14:22;;;;;;;4.27;2.33;;;15.30;1.00;;;;;;5034686;28;20210;-67
2021/10/02 10:16:49;;;;;;;3.67;2.37;;;15.30;99.90;;;;;;5034766;28;20556;-67
2021/10/02 10:19:20;;;;;;;4.27;2.13;;;15.20;1.00;;;;;;5033814;28;20239;-67
2021/10/02 10:22:04;;;;;;;2.00;1.80;;;15.30;1.00;;;;;;5034169;28;20219;-67
2021/10/02 10:24:31;;;;;;;3.57;2.10;;;15.30;1.00;;;;;;5035155;28;20206;-67
2021/10/02 10:26:59;;;;;;;3.73;1.70;;;15.20;99.90;;;;;;5034924;28;20626;-66
2021/10/02 10:29:36;;;;;;;3.30;1.90;;;15.20;99.90;;;;;;5034820;28;20251;-65
2021/10/02 10:32:05;;;;;;;2.07;1.87;;;15.20;99.90;;;;;;5034956;28;20293;-67
2021/10/02 10:34:33;;;;;;;3.00;1.90;;;15.20;1.00;;;;;;5034701;28;20249;-66
2021/10/02 10:37:00;;;;;;;2.20;2.00;;;15.30;1.00;;;;;;5034888;28;20237;-66
2021/10/02 10:39:26;;;;;;;4.23;2.23;;;15.50;34.50;;;;;;5034708;28;20230;-65
2021/10/02 10:41:54;;;;;;;2.30;1.60;;;15.60;1.00;;;;;;5034763;28;20222;-66
2021/10/02 10:44:23;;;;;;;2.80;1.70;;;15.70;99.90;;;;;;5034589;28;20297;-65
2021/10/02 10:46:50;;;;;;;2.13;1.30;;;15.80;99.90;;;;;;5034317;28;20300;-66
2021/10/02 10:49:18;;;;;;;2.63;1.47;;;15.80;99.90;;;;;;5034520;28;20577;-65
2021/10/02 10:51:45;;;;;;;2.07;1.33;;;15.90;85.90;;;;;;5034681;28;20249;-68
2021/10/02 10:54:17;;;;;;;1.83;1.47;;;15.80;99.90;;;;;;5034915;28;20233;-66
2021/10/02 10:56:46;;;;;;;1.60;1.50;;;15.80;99.90;;;;;;5034237;28;20264;-68
2021/10/02 10:59:18;;;;;;;2.30;1.50;;;15.80;1.00;;;;;;5034329;28;20233;-65
2021/10/02 11:01:47;;;;;;;3.27;1.83;;;15.70;99.90;;;;;;5034075;28;20222;-65
2021/10/02 11:04:34;;;;;;;2.70;1.70;;;15.60;99.90;;;;;;5034466;28;20202;-68
2021/10/02 11:07:00;;;;;;;4.03;1.77;;;15.50;99.90;;;;;;5034384;28;20206;-68
2021/10/02 11:09:39;;;;;;;2.00;1.80;;;15.40;99.90;;;;;;5034308;28;20234;-66
2021/10/02 11:12:07;;;;;;;2.40;1.63;;;15.50;1.00;;;;;;5034190;28;20206;-67
2021/10/02 11:14:59;;;;;;;1.70;1.53;;;15.50;99.90;;;;;;5034126;28;20207;-67
2021/10/02 11:17:53;;;;;;;2.00;1.50;;;15.60;1.00;;;;;;5034157;28;20241;-67
2021/10/02 11:20:37;;;;;;;2.03;1.40;;;15.70;99.90;;;;;;5027365;28;20206;-67
2021/10/02 11:23:41;;;;;;;3.87;1.40;;;15.90;99.90;;;;;;5033533;28;20231;-68
2021/10/02 11:26:18;;;;;;;1.50;1.40;;;16.10;1.00;;;;;;5033380;28;20759;-67
2021/10/02 11:28:45;;;;;;;2.60;1.10;;;16.10;1.00;;;;;;5033432;28;20253;-68
2021/10/02 11:31:14;;;;;;;1.57;1.00;;;16.20;99.90;;;;;;5033493;28;20213;-67
2021/10/02 11:33:48;;;;;;;1.30;0.90;;;16.40;1.00;;;;;;5033605;28;20268;-65
2021/10/02 11:36:43;;;;;;;2.23;1.30;;;16.40;99.90;;;;;;5033367;28;20578;-64
2021/10/02 11:39:15;;;;;;;0.80;0.80;;;16.40;99.90;;;;;;5032828;28;20718;-67
2021/10/02 11:41:44;;;;;;;1.23;0.83;;;16.40;1.00;;;;;;5032846;28;20238;-67
2021/10/02 11:44:12;;;;;;;2.13;1.00;;;16.60;99.90;;;;;;5033522;28;20297;-68
2021/10/02 11:46:39;;;;;;;2.87;1.43;;;16.70;99.90;;;;;;5032933;28;20209;-68
2021/10/02 11:49:18;;;;;;;1.67;1.30;;;16.50;99.90;;;;;;5033273;28;20234;-68
2021/10/02 11:52:09;;;;;;;3.50;1.33;;;16.40;99.90;;;;;;5032969;28;20198;-68
2021/10/02 11:54:36;;;;;;;1.23;1.07;;;16.30;99.90;;;;;;5032319;28;20202;-69
2021/10/02 11:57:11;;;;;;;1.10;1.00;;;16.30;99.90;;;;;;5032777;28;20575;-66
2021/10/02 11:59:42;;;;;;;1.37;1.10;;;16.30;99.90;;;;;;5032058;28;20233;-67
2021/10/02 12:02:10;;;;;;;1.57;1.20;;;16.40;1.00;;;;;;5033024;28;20305;-70
2021/10/02 12:04:38;;;;;;;1.60;1.00;;;16.60;99.90;;;;;;5032543;28;20210;-70
2021/10/02 12:07:06;;;;;;;1.70;1.20;;;16.70;99.90;;;;;;5032921;28;20228;-68
2021/10/02 12:09:33;;;;;;;1.33;1.00;;;16.90;99.90;;;;;;5032598;28;20230;-69
2021/10/02 12:12:00;;;;;;;1.50;1.00;;;17.00;99.90;;;;;;5032850;28;20206;-71
2021/10/02 12:14:29;;;;;;;0.80;0.70;;;17.10;99.90;;;;;;5032573;28;20249;-71
2021/10/02 12:16:57;;;;;;;1.70;1.00;;;17.10;90.10;;;;;;5032731;28;20210;-67
2021/10/02 12:19:24;;;;;;;2.20;1.30;;;17.10;74.20;;;;;;5032442;28;20272;-67
2021/10/02 12:21:55;;;;;;;1.27;0.87;;;17.20;99.90;;;;;;5032309;28;20607;-67
2021/10/02 12:24:23;;;;;;;1.30;1.10;;;17.10;99.90;;;;;;5032502;28;20320;-67
2021/10/02 12:26:54;;;;;;;1.53;1.03;;;17.00;62.10;;;;;;5031997;28;20206;-69
2021/10/02 12:29:23;;;;;;;4.30;1.40;;;16.90;99.90;;;;;;5031693;28;20723;-67
2021/10/02 12:31:59;;;;;;;1.20;0.80;;;16.70;99.90;;;;;;5031775;28;20225;-67
2021/10/02 12:34:28;;;;;;;1.57;1.23;;;16.70;99.90;;;;;;5032304;28;20581;-68
2021/10/02 12:36:58;;;;;;;2.73;0.93;;;16.50;99.90;;;;;;5031699;28;20671;-69
2021/10/02 12:39:38;;;;;;;1.50;1.00;;;16.50;1.00;;;;;;5031992;28;20861;-69
2021/10/02 12:42:06;;;;;;;1.70;1.10;;;16.60;99.90;;;;;;5032164;28;20230;-69
2021/10/02 12:44:35;;;;;;;1.40;1.10;;;16.60;99.90;;;;;;5031915;28;20622;-68
2021/10/02 12:47:05;;;;;;;2.77;1.00;;;16.70;99.90;;;;;;5032419;28;20673;-69
2021/10/02 12:49:33;;;;;;;1.17;0.90;;;16.80;99.90;;;;;;5031721;28;20241;-68
2021/10/02 12:52:04;;;;;;;2.83;1.10;;;16.90;95.80;;;;;;5031261;28;20206;-67
2021/10/02 12:54:31;;;;;;;1.87;1.10;;;17.00;99.90;;;;;;5032054;28;20210;-68
2021/10/02 12:57:14;;;;;;;2.47;0.90;;;17.00;72.70;;;;;;5032101;28;20206;-68
2021/10/02 12:59:44;;;;;;;2.07;1.00;;;17.10;87.30;;;;;;5031651;28;20226;-68
2021/10/02 13:02:11;;;;;;;1.80;1.13;;;17.10;69.70;;;;;;5031908;28;20651;-67
2021/10/02 13:04:38;;;;;;;2.90;1.83;;;17.20;1.00;;;;;;5031275;28;20264;-67
2021/10/02 13:07:07;;;;;;;2.03;1.00;;;17.40;1.00;;;;;;5031873;28;20252;-67
2021/10/02 13:09:55;;;;;;;1.00;0.87;;;17.50;1.00;;;;;;5031057;28;20230;-70
2021/10/02 13:12:31;;;;;;;1.97;0.80;;;17.50;1.00;;;;;;5031827;28;20317;-68
2021/10/02 13:14:58;;;;;;;1.20;0.80;;;17.30;1.00;;;;;;5031490;28;20210;-67
2021/10/02 13:17:25;;;;;;;1.20;1.10;;;16.90;1.00;;;;;;5031615;28;20627;-67
2021/10/02 13:20:12;;;;;;;3.40;1.07;;;16.80;1.00;;;;;;5031653;28;20731;-67
2021/10/02 13:22:49;;;;;;;1.83;0.97;;;16.80;1.00;;;;;;5030826;28;20300;-68
2021/10/02 13:25:22;;;;;;;2.63;1.00;;;16.70;1.00;;;;;;5031207;28;20209;-67
2021/10/02 13:27:51;;;;;;;2.30;1.00;;;16.70;1.00;;;;;;5031829;28;20557;-67
2021/10/02 13:30:19;;;;;;;3.83;1.37;;;16.70;1.00;;;;;;5030773;28;20210;-68
2021/10/02 13:33:05;;;;;;;3.87;1.10;;;16.70;1.00;;;;;;5031018;28;20198;-68
2021/10/02 13:35:34;;;;;;;1.97;0.90;;;16.60;1.00;;;;;;5030954;28;20217;-69
2021/10/02 13:38:03;;;;;;;1.13;1.00;;;16.50;1.00;;;;;;5031825;28;20237;-69
2021/10/02 13:40:32;;;;;;;2.67;1.07;;;16.50;1.00;;;;;;5031237;28;20638;-69
2021/10/02 13:43:01;;;;;;;1.33;1.00;;;16.60;1.00;;;;;;5031474;28;20635;-71
2021/10/02 13:45:31;;;;;;;1.60;0.90;;;16.70;1.00;;;;;;5031065;28;20606;-69